createdAt,value
2019-04-25T00:02:28.922Z,99.90
2019-04-25T00:05:01.338Z,99.90
2019-04-25T00:07:33.158Z,99.90
2019-04-25T00:10:05.552Z,99.90
2019-04-25T00:12:37.856Z,99.90
2019-04-25T00:15:10.814Z,99.90
2019-04-25T00:17:43.274Z,99.90
2019-04-25T00:20:15.321Z,99.90
2019-04-25T00:22:53.363Z,99.90
2019-04-25T00:25:34.904Z,99.90
2019-04-25T00:28:07.575Z,99.90
2019-04-25T00:30:40.323Z,99.90
2019-04-25T00:33:11.840Z,99.90
2019-04-25T00:35:44.560Z,99.90
2019-04-25T00:38:16.054Z,99.90
2019-04-25T00:40:48.083Z,99.90
2019-04-25T00:43:19.405Z,99.90
2019-04-25T00:45:51.627Z,99.90
2019-04-25T00:48:23.519Z,99.90
2019-04-25T00:50:54.841Z,99.90
2019-04-25T00:53:25.971Z,99.90
2019-04-25T00:55:57.049Z,99.90
2019-04-25T00:58:42.189Z,99.90
2019-04-25T01:01:31.890Z,99.90
2019-04-25T01:04:03.345Z,99.90
2019-04-25T01:06:34.564Z,99.90
2019-04-25T01:09:08.676Z,99.90
2019-04-25T01:11:40.092Z,99.90
2019-04-25T01:14:11.946Z,99.90
2019-04-25T01:16:43.346Z,99.90
2019-04-25T01:19:14.843Z,99.90
2019-04-25T01:21:47.458Z,99.90
2019-04-25T01:24:18.800Z,99.90
2019-04-25T01:26:50.349Z,99.90
2019-04-25T01:29:21.638Z,99.90
2019-04-25T01:31:54.402Z,99.90
2019-04-25T01:34:38.938Z,99.90
2019-04-25T01:37:17.257Z,99.90
2019-04-25T01:40:11.695Z,99.90
2019-04-25T01:43:13.671Z,99.90
2019-04-25T01:45:45.258Z,99.90
2019-04-25T01:48:16.517Z,99.90
2019-04-25T01:50:49.268Z,99.90
2019-04-25T01:53:20.787Z,99.90
2019-04-25T01:56:00.558Z,99.90
2019-04-25T01:58:25.296Z,99.90
2019-04-25T02:00:57.321Z,99.90
2019-04-25T02:03:28.636Z,99.90
2019-04-25T02:06:00.070Z,99.90
2019-04-25T02:08:30.820Z,99.90
2019-04-25T02:11:24.036Z,99.90
2019-04-25T02:13:54.923Z,99.90
2019-04-25T02:16:25.403Z,99.90
2019-04-25T02:18:56.376Z,99.90
2019-04-25T02:21:27.391Z,99.90
2019-04-25T02:23:58.814Z,99.90
2019-04-25T02:26:30.479Z,99.90
2019-04-25T02:29:03.089Z,99.90
2019-04-25T02:31:34.997Z,99.90
2019-04-25T02:34:08.591Z,99.90
2019-04-25T02:36:39.357Z,99.90
2019-04-25T02:39:16.810Z,99.90
2019-04-25T02:41:47.964Z,99.90
2019-04-25T02:44:19.359Z,99.90
2019-04-25T02:47:09.584Z,99.90
2019-04-25T02:50:03.488Z,99.90
2019-04-25T02:52:37.412Z,99.90
2019-04-25T02:55:11.455Z,99.90
2019-04-25T02:57:44.721Z,99.90
2019-04-25T03:00:45.332Z,99.90
2019-04-25T03:03:01.261Z,99.90
2019-04-25T03:05:35.115Z,99.90
2019-04-25T03:08:08.485Z,99.90
2019-04-25T03:10:38.115Z,99.90
2019-04-25T03:13:11.909Z,99.90
2019-04-25T03:15:41.260Z,99.90
2019-04-25T03:18:15.221Z,99.90
2019-04-25T03:20:54.911Z,99.90
2019-04-25T03:23:42.556Z,99.90
2019-04-25T03:26:13.578Z,99.90
2019-04-25T03:28:45.101Z,99.90
2019-04-25T03:31:22.121Z,99.90
2019-04-25T03:33:48.274Z,99.90
2019-04-25T03:36:19.749Z,99.90
2019-04-25T03:38:51.601Z,99.90
2019-04-25T03:41:24.422Z,99.90
2019-04-25T03:43:55.938Z,99.90
2019-04-25T03:46:27.728Z,99.90
2019-04-25T03:48:58.802Z,99.90
2019-04-25T03:51:30.142Z,99.90
2019-04-25T03:54:01.685Z,99.90
2019-04-25T03:56:33.385Z,99.90
2019-04-25T03:59:06.085Z,99.90
2019-04-25T04:01:38.538Z,99.90
2019-04-25T04:04:11.090Z,99.90
2019-04-25T04:06:44.109Z,99.90
2019-04-25T04:09:16.235Z,99.90
2019-04-25T04:11:47.640Z,99.90
2019-04-25T04:14:19.056Z,99.90
2019-04-25T04:17:09.097Z,99.90
2019-04-25T04:19:47.421Z,99.90
2019-04-25T04:22:29.813Z,99.90
2019-04-25T04:25:01.568Z,99.90
2019-04-25T04:27:35.125Z,99.90
2019-04-25T04:30:08.023Z,99.90
2019-04-25T04:32:39.564Z,99.90
2019-04-25T04:35:11.379Z,99.90
2019-04-25T04:37:43.180Z,99.90
2019-04-25T04:40:15.849Z,99.90
2019-04-25T04:42:47.053Z,99.90
2019-04-25T04:45:16.964Z,99.90
2019-04-25T04:47:48.618Z,99.90
2019-04-25T04:50:20.000Z,99.90
2019-04-25T04:52:49.818Z,99.90
2019-04-25T04:55:21.359Z,99.90
2019-04-25T04:57:54.166Z,99.90
2019-04-25T05:00:25.419Z,99.90
2019-04-25T05:03:08.983Z,99.90
2019-04-25T05:05:55.166Z,99.90
2019-04-25T05:08:37.250Z,99.90
2019-04-25T05:11:08.600Z,99.90
2019-04-25T05:13:41.127Z,99.90
2019-04-25T05:16:15.081Z,99.90
2019-04-25T05:18:45.329Z,99.90
2019-04-25T05:21:17.142Z,99.90
2019-04-25T05:23:48.989Z,99.90
2019-04-25T05:26:21.042Z,99.90
2019-04-25T05:28:53.294Z,99.90
2019-04-25T05:31:46.094Z,99.90
2019-04-25T05:34:17.188Z,99.90
2019-04-25T05:36:48.958Z,99.90
2019-04-25T05:39:20.514Z,99.90
2019-04-25T05:42:07.480Z,99.90
2019-04-25T05:44:37.871Z,99.90
2019-04-25T05:47:09.758Z,99.90
2019-04-25T05:49:41.162Z,99.90
2019-04-25T05:52:13.894Z,99.90
2019-04-25T05:54:45.340Z,99.90
2019-04-25T05:57:16.830Z,99.90
2019-04-25T05:59:48.725Z,99.90
2019-04-25T06:02:19.440Z,99.90
2019-04-25T06:04:53.452Z,99.90
2019-04-25T06:07:26.653Z,99.90
2019-04-25T06:10:14.833Z,99.90
2019-04-25T06:12:53.641Z,99.90
2019-04-25T06:15:28.221Z,99.90
2019-04-25T06:18:16.085Z,99.90
2019-04-25T06:20:48.426Z,99.90
2019-04-25T06:23:45.744Z,99.90
2019-04-25T06:26:26.464Z,99.90
2019-04-25T06:28:57.712Z,99.90
2019-04-25T06:31:26.865Z,99.90
2019-04-25T06:34:04.565Z,99.90
2019-04-25T06:36:35.742Z,99.90
2019-04-25T06:39:09.743Z,99.90
2019-04-25T06:41:44.135Z,99.90
2019-04-25T06:44:34.430Z,99.90
2019-04-25T06:47:29.583Z,99.90
2019-04-25T06:50:04.195Z,99.90
2019-04-25T06:52:35.605Z,99.90
2019-04-25T06:55:09.153Z,99.90
2019-04-25T06:57:40.573Z,99.90
2019-04-25T07:00:14.085Z,99.90
2019-04-25T07:02:44.284Z,99.90
2019-04-25T07:05:26.149Z,99.90
2019-04-25T07:07:48.110Z,99.90
2019-04-25T07:10:19.902Z,99.90
2019-04-25T07:12:49.733Z,99.90
2019-04-25T07:15:20.282Z,99.90
2019-04-25T07:17:50.171Z,99.90
2019-04-25T07:20:20.870Z,99.90
2019-04-25T07:22:50.878Z,99.90
2019-04-25T07:25:24.963Z,99.90
2019-04-25T07:28:24.340Z,99.90
2019-04-25T07:31:07.180Z,99.90
2019-04-25T07:34:03.242Z,99.90
2019-04-25T07:36:35.129Z,99.90
2019-04-25T07:39:10.482Z,99.80
2019-04-25T07:41:41.681Z,98.60
2019-04-25T07:44:15.020Z,98.50
2019-04-25T07:46:45.233Z,98.80
2019-04-25T07:49:17.917Z,98.60
2019-04-25T07:51:48.125Z,99.10
2019-04-25T07:54:18.123Z,99.10
2019-04-25T07:56:48.169Z,99.10
2019-04-25T07:59:20.160Z,99.20
2019-04-25T08:01:50.183Z,99.20
2019-04-25T08:04:20.178Z,99.00
2019-04-25T08:06:50.268Z,98.60
2019-04-25T08:09:20.258Z,98.80
2019-04-25T08:11:50.970Z,98.50
2019-04-25T08:14:38.651Z,98.70
2019-04-25T08:17:09.771Z,98.60
2019-04-25T08:19:41.091Z,98.40
2019-04-25T08:22:13.541Z,98.70
2019-04-25T08:24:44.052Z,98.50
2019-04-25T08:27:14.168Z,97.90
2019-04-25T08:29:45.558Z,97.40
2019-04-25T08:32:16.146Z,96.60
2019-04-25T08:34:47.601Z,96.20
2019-04-25T08:37:21.263Z,96.00
2019-04-25T08:39:51.769Z,95.80
2019-04-25T08:42:22.011Z,95.20
2019-04-25T08:44:53.485Z,95.40
2019-04-25T08:47:24.321Z,95.30
2019-04-25T08:50:26.302Z,95.10
2019-04-25T08:52:45.190Z,94.70
2019-04-25T08:55:35.682Z,94.70
2019-04-25T08:58:15.364Z,93.40
2019-04-25T09:01:04.047Z,92.90
2019-04-25T09:03:44.354Z,92.40
2019-04-25T09:06:14.849Z,92.60
2019-04-25T09:08:48.324Z,92.50
2019-04-25T09:11:18.481Z,91.50
2019-04-25T09:13:48.769Z,91.30
2019-04-25T09:16:18.975Z,91.50
2019-04-25T09:18:48.957Z,91.40
2019-04-25T09:21:18.873Z,91.40
2019-04-25T09:23:48.726Z,91.60
2019-04-25T09:26:19.208Z,91.70
2019-04-25T09:28:49.247Z,91.10
2019-04-25T09:31:19.453Z,90.70
2019-04-25T09:33:50.671Z,90.00
2019-04-25T09:36:23.972Z,89.10
2019-04-25T09:38:56.484Z,88.20
2019-04-25T09:41:26.714Z,87.60
2019-04-25T09:44:04.508Z,89.10
2019-04-25T09:46:37.061Z,87.60
2019-04-25T09:49:23.798Z,86.80
2019-04-25T09:52:04.645Z,85.40
2019-04-25T09:54:53.653Z,86.20
2019-04-25T09:57:54.775Z,83.30
2019-04-25T10:00:45.981Z,77.60
2019-04-25T10:03:16.201Z,63.90
2019-04-25T10:05:46.856Z,58.40
2019-04-25T10:08:16.974Z,52.20
2019-04-25T10:10:46.933Z,47.20
2019-04-25T10:13:17.255Z,43.00
2019-04-25T10:15:54.880Z,41.70
2019-04-25T10:18:24.966Z,40.80
2019-04-25T10:20:59.090Z,39.30
2019-04-25T10:23:30.686Z,39.00
2019-04-25T10:26:00.971Z,38.40
2019-04-25T10:28:31.071Z,38.10
2019-04-25T10:31:01.224Z,37.50
2019-04-25T10:33:31.282Z,36.70
2019-04-25T10:36:01.632Z,35.90
2019-04-25T10:38:34.843Z,36.80
2019-04-25T10:41:04.320Z,37.20
2019-04-25T10:43:34.807Z,36.80
2019-04-25T10:46:05.331Z,35.50
2019-04-25T10:48:35.854Z,35.90
2019-04-25T10:51:05.804Z,35.20
2019-04-25T10:53:36.002Z,34.90
2019-04-25T10:56:06.320Z,35.60
2019-04-25T10:58:36.523Z,34.60
2019-04-25T11:01:07.535Z,33.70
2019-04-25T11:04:02.216Z,34.40
2019-04-25T11:06:33.630Z,35.70
2019-04-25T11:09:04.902Z,37.10
2019-04-25T11:11:36.905Z,38.30
2019-04-25T11:14:08.090Z,39.30
2019-04-25T11:16:38.334Z,39.20
2019-04-25T11:19:08.410Z,40.20
2019-04-25T11:21:38.891Z,39.30
2019-04-25T11:24:08.883Z,39.30
2019-04-25T11:26:38.815Z,38.60
2019-04-25T11:29:09.268Z,37.30
2019-04-25T11:31:45.761Z,37.80
2019-04-25T11:34:16.933Z,38.70
2019-04-25T11:36:48.419Z,39.00
2019-04-25T11:39:54.593Z,40.00
2019-04-25T11:42:24.708Z,40.50
2019-04-25T11:44:55.599Z,40.40
2019-04-25T11:47:25.738Z,41.20
2019-04-25T11:49:55.773Z,41.60
2019-04-25T11:52:28.415Z,41.60
2019-04-25T11:54:57.328Z,41.40
2019-04-25T11:57:27.369Z,41.50
2019-04-25T11:59:57.297Z,40.70
2019-04-25T12:02:27.766Z,41.20
2019-04-25T12:04:58.112Z,42.40
2019-04-25T12:07:28.228Z,42.50
2019-04-25T12:09:58.288Z,42.30
2019-04-25T12:12:28.502Z,42.80
2019-04-25T12:14:58.582Z,43.20
2019-04-25T12:17:28.830Z,43.90
2019-04-25T12:20:00.008Z,44.50
2019-04-25T12:22:30.154Z,44.50
2019-04-25T12:25:00.134Z,45.30
2019-04-25T12:27:30.259Z,45.60
2019-04-25T12:30:00.213Z,45.20
2019-04-25T12:32:30.107Z,45.30
2019-04-25T12:35:00.166Z,45.20
2019-04-25T12:37:30.242Z,44.50
2019-04-25T12:40:00.436Z,44.30
2019-04-25T12:42:30.442Z,43.70
2019-04-25T12:45:09.665Z,42.60
2019-04-25T12:47:47.655Z,42.10
2019-04-25T12:50:18.899Z,41.30
2019-04-25T12:52:50.531Z,41.60
2019-04-25T12:55:20.718Z,37.00
2019-04-25T12:57:51.367Z,33.50
2019-04-25T13:00:25.599Z,31.50
2019-04-25T13:02:56.635Z,30.40
2019-04-25T13:05:26.944Z,31.40
2019-04-25T13:07:58.662Z,32.70
2019-04-25T13:10:28.816Z,33.80
2019-04-25T13:12:58.797Z,35.30
2019-04-25T13:15:28.600Z,36.10
2019-04-25T13:17:58.751Z,36.50
2019-04-25T13:20:28.840Z,36.20
2019-04-25T13:22:58.721Z,36.00
2019-04-25T13:25:29.024Z,35.30
2019-04-25T13:28:14.424Z,34.50
2019-04-25T13:31:07.499Z,33.50
2019-04-25T13:33:54.268Z,31.70
2019-04-25T13:36:25.166Z,31.50
2019-04-25T13:38:57.179Z,30.10
2019-04-25T13:41:28.272Z,30.60
2019-04-25T13:43:58.934Z,31.10
2019-04-25T13:46:28.907Z,32.20
2019-04-25T13:48:58.848Z,33.20
2019-04-25T13:51:28.848Z,34.00
2019-04-25T13:53:58.880Z,34.20
2019-04-25T13:56:29.180Z,34.70
2019-04-25T13:58:59.297Z,34.00
2019-04-25T14:01:29.702Z,32.20
2019-04-25T14:03:59.714Z,30.80
2019-04-25T14:06:30.370Z,31.40
2019-04-25T14:09:00.410Z,32.20
2019-04-25T14:11:30.715Z,33.10
2019-04-25T14:14:00.568Z,34.20
2019-04-25T14:16:37.932Z,35.30
2019-04-25T14:19:26.624Z,35.80
2019-04-25T14:21:59.014Z,36.30
2019-04-25T14:24:30.736Z,36.60
2019-04-25T14:27:00.708Z,37.00
2019-04-25T14:29:31.033Z,37.00
2019-04-25T14:32:03.310Z,37.20
2019-04-25T14:34:33.799Z,37.70
2019-04-25T14:37:03.949Z,37.90
2019-04-25T14:39:34.184Z,38.10
2019-04-25T14:42:04.178Z,38.30
2019-04-25T14:44:34.429Z,38.80
2019-04-25T14:47:05.371Z,38.90
2019-04-25T14:49:35.176Z,38.80
2019-04-25T14:52:05.178Z,39.60
2019-04-25T14:54:54.011Z,39.70
2019-04-25T14:57:27.493Z,40.40
2019-04-25T14:59:58.124Z,41.20
2019-04-25T15:02:29.989Z,41.50
2019-04-25T15:05:00.024Z,42.30
2019-04-25T15:07:29.961Z,42.40
2019-04-25T15:09:59.799Z,42.60
2019-04-25T15:12:29.888Z,42.30
2019-04-25T15:14:59.697Z,41.40
2019-04-25T15:17:34.443Z,42.20
2019-04-25T15:20:01.476Z,42.80
2019-04-25T15:22:32.536Z,42.70
2019-04-25T15:25:03.054Z,42.70
2019-04-25T15:27:33.137Z,43.00
2019-04-25T15:30:04.769Z,43.80
2019-04-25T15:32:35.284Z,42.50
2019-04-25T15:35:06.341Z,41.60
2019-04-25T15:37:44.987Z,42.30
2019-04-25T15:40:26.456Z,41.30
2019-04-25T15:43:26.197Z,41.30
2019-04-25T15:46:21.219Z,41.80
2019-04-25T15:48:51.723Z,41.60
2019-04-25T15:51:22.049Z,41.80
2019-04-25T15:53:52.129Z,41.80
2019-04-25T15:56:22.309Z,40.60
2019-04-25T15:58:52.573Z,40.90
2019-04-25T16:01:22.635Z,41.10
2019-04-25T16:03:52.680Z,40.70
2019-04-25T16:06:24.210Z,40.00
2019-04-25T16:08:54.008Z,40.00
2019-04-25T16:11:26.528Z,40.30
2019-04-25T16:13:56.621Z,40.10
2019-04-25T16:16:26.881Z,40.20
2019-04-25T16:18:57.356Z,39.90
2019-04-25T16:21:27.798Z,39.80
2019-04-25T16:23:57.771Z,39.80
2019-04-25T16:26:28.093Z,40.20
2019-04-25T16:28:58.395Z,40.10
2019-04-25T16:31:29.232Z,39.90
2019-04-25T16:33:59.415Z,39.40
2019-04-25T16:36:29.707Z,39.60
2019-04-25T16:39:00.581Z,39.90
2019-04-25T16:41:31.480Z,40.30
2019-04-25T16:44:06.030Z,41.40
2019-04-25T16:46:36.101Z,42.40
2019-04-25T16:49:07.207Z,43.70
2019-04-25T16:51:37.931Z,45.10
2019-04-25T16:54:08.132Z,46.20
2019-04-25T16:56:38.127Z,48.30
2019-04-25T16:59:08.331Z,51.00
2019-04-25T17:01:38.622Z,54.00
2019-04-25T17:04:08.670Z,56.70
2019-04-25T17:06:38.592Z,59.40
2019-04-25T17:09:08.600Z,63.10
2019-04-25T17:11:39.274Z,63.60
2019-04-25T17:14:17.161Z,65.00
2019-04-25T17:17:04.910Z,67.20
2019-04-25T17:19:48.909Z,68.50
2019-04-25T17:22:19.496Z,71.90
2019-04-25T17:24:49.562Z,74.20
2019-04-25T17:27:20.123Z,76.30
2019-04-25T17:29:50.074Z,77.90
2019-04-25T17:32:48.001Z,79.60
2019-04-25T17:35:20.498Z,80.20
2019-04-25T17:37:57.988Z,83.00
2019-04-25T17:40:31.310Z,84.30
2019-04-25T17:43:10.799Z,85.80
2019-04-25T17:45:34.777Z,86.80
2019-04-25T17:48:05.007Z,88.00
2019-04-25T17:50:34.934Z,89.10
2019-04-25T17:53:05.000Z,89.80
2019-04-25T17:55:35.066Z,90.20
2019-04-25T17:58:05.011Z,90.60
2019-04-25T18:00:39.940Z,90.90
2019-04-25T18:03:12.642Z,91.20
2019-04-25T18:05:42.571Z,91.50
2019-04-25T18:08:13.401Z,92.10
2019-04-25T18:10:44.185Z,92.30
2019-04-25T18:13:14.359Z,92.80
2019-04-25T18:16:06.332Z,93.10
2019-04-25T18:18:51.521Z,93.60
2019-04-25T18:21:21.444Z,94.20
2019-04-25T18:24:16.527Z,94.60
2019-04-25T18:26:59.061Z,94.70
2019-04-25T18:29:29.123Z,95.20
2019-04-25T18:31:59.040Z,95.80
2019-04-25T18:34:37.517Z,96.00
2019-04-25T18:37:41.481Z,96.40
2019-04-25T18:40:32.264Z,96.50
2019-04-25T18:43:19.621Z,96.70
2019-04-25T18:45:53.825Z,96.90
2019-04-25T18:48:24.215Z,96.80
2019-04-25T18:50:54.082Z,97.10
2019-04-25T18:53:43.073Z,97.30
2019-04-25T18:56:37.588Z,97.30
2019-04-25T18:59:35.889Z,97.40
2019-04-25T19:02:23.409Z,97.30
2019-04-25T19:05:04.761Z,96.90
2019-04-25T19:07:34.926Z,96.90
2019-04-25T19:10:06.002Z,96.70
2019-04-25T19:12:36.157Z,96.90
2019-04-25T19:15:06.727Z,97.10
2019-04-25T19:17:36.559Z,96.90
2019-04-25T19:20:07.003Z,97.20
2019-04-25T19:22:37.046Z,97.10
2019-04-25T19:25:07.595Z,97.00
2019-04-25T19:27:37.755Z,96.60
2019-04-25T19:30:09.559Z,96.10
2019-04-25T19:32:40.615Z,95.80
2019-04-25T19:35:11.651Z,96.10
2019-04-25T19:37:41.903Z,96.10
2019-04-25T19:40:21.631Z,96.20
2019-04-25T19:42:54.740Z,96.60
2019-04-25T19:45:24.510Z,95.50
2019-04-25T19:47:54.398Z,95.00
2019-04-25T19:50:24.246Z,95.40
2019-04-25T19:52:54.254Z,95.40
2019-04-25T19:55:24.035Z,95.20
2019-04-25T19:57:53.856Z,94.50
2019-04-25T20:00:23.873Z,94.80
2019-04-25T20:03:03.364Z,94.50
2019-04-25T20:05:40.127Z,94.80
2019-04-25T20:08:44.895Z,94.50
2019-04-25T20:11:24.658Z,94.70
2019-04-25T20:13:54.483Z,94.60
2019-04-25T20:16:24.520Z,94.50
2019-04-25T20:18:54.280Z,94.80
2019-04-25T20:21:24.308Z,94.90
2019-04-25T20:23:54.490Z,94.80
2019-04-25T20:26:27.209Z,94.70
2019-04-25T20:28:56.951Z,94.60
2019-04-25T20:31:26.770Z,94.90
2019-04-25T20:34:05.416Z,94.80
2019-04-25T20:36:28.243Z,94.70
2019-04-25T20:38:58.518Z,95.30
2019-04-25T20:41:28.179Z,95.10
2019-04-25T20:43:57.922Z,95.30
2019-04-25T20:46:27.923Z,95.00
2019-04-25T20:48:57.686Z,95.30
2019-04-25T20:51:27.444Z,95.10
2019-04-25T20:53:57.201Z,95.40
2019-04-25T20:56:26.870Z,95.30
2019-04-25T20:58:57.621Z,95.20
2019-04-25T21:01:27.722Z,95.50
2019-04-25T21:04:12.518Z,95.40
2019-04-25T21:06:35.452Z,94.70
2019-04-25T21:09:07.120Z,95.10
2019-04-25T21:11:37.048Z,95.20
2019-04-25T21:14:24.678Z,95.30
2019-04-25T21:17:16.877Z,94.90
2019-04-25T21:19:48.786Z,95.00
2019-04-25T21:22:18.481Z,95.50
2019-04-25T21:24:48.373Z,95.40
2019-04-25T21:27:19.130Z,95.60
2019-04-25T21:29:49.295Z,95.70
2019-04-25T21:32:20.762Z,95.70
2019-04-25T21:34:51.684Z,95.80
2019-04-25T21:37:22.766Z,96.30
2019-04-25T21:40:18.223Z,96.30
2019-04-25T21:42:53.837Z,96.60
2019-04-25T21:45:24.118Z,96.90
2019-04-25T21:47:54.756Z,96.90
2019-04-25T21:50:25.202Z,97.10
2019-04-25T21:52:56.115Z,97.60
2019-04-25T21:55:27.042Z,97.80
2019-04-25T21:57:58.053Z,98.20
2019-04-25T22:01:02.374Z,98.70
2019-04-25T22:03:32.238Z,98.40
2019-04-25T22:06:02.949Z,98.80
2019-04-25T22:08:32.749Z,98.40
2019-04-25T22:11:05.532Z,98.70
2019-04-25T22:13:36.039Z,98.90
2019-04-25T22:16:06.245Z,99.10
2019-04-25T22:18:36.438Z,99.20
2019-04-25T22:21:06.574Z,99.50
2019-04-25T22:23:36.685Z,99.70
2019-04-25T22:26:07.759Z,99.90
2019-04-25T22:28:37.881Z,99.90
2019-04-25T22:31:13.456Z,99.90
2019-04-25T22:34:08.272Z,99.90
2019-04-25T22:36:38.757Z,99.90
2019-04-25T22:39:11.056Z,99.90
2019-04-25T22:41:46.992Z,99.90
2019-04-25T22:44:19.244Z,99.90
2019-04-25T22:46:49.723Z,99.90
2019-04-25T22:49:19.611Z,99.90
2019-04-25T22:51:49.435Z,99.90
2019-04-25T22:54:19.477Z,99.90
2019-04-25T22:56:49.557Z,99.90
2019-04-25T22:59:19.639Z,99.90
2019-04-25T23:01:56.635Z,99.90
2019-04-25T23:04:48.926Z,99.90
2019-04-25T23:07:18.906Z,99.90
2019-04-25T23:09:50.293Z,99.70
2019-04-25T23:12:20.601Z,99.90
2019-04-25T23:14:50.447Z,99.90
2019-04-25T23:17:20.130Z,99.90
2019-04-25T23:19:50.278Z,99.90
2019-04-25T23:22:20.042Z,99.90
2019-04-25T23:25:09.920Z,99.90
2019-04-25T23:27:58.926Z,99.90
2019-04-25T23:30:37.337Z,99.90
2019-04-25T23:33:07.036Z,99.90
2019-04-25T23:35:38.400Z,99.90
2019-04-25T23:38:09.887Z,99.90
2019-04-25T23:40:40.008Z,99.90
2019-04-25T23:43:10.041Z,99.90
2019-04-25T23:45:39.842Z,99.90
2019-04-25T23:48:10.316Z,99.90
2019-04-25T23:50:40.240Z,99.90
2019-04-25T23:53:10.715Z,99.90
2019-04-25T23:55:40.800Z,99.90
2019-04-25T23:58:11.517Z,99.90
